sensor_id;sensor_type;location;lat;lon;timestamp;pressure;altitude;pressure_sealevel;temperature;humidity
14343;BME280;7255;53.596;9.960;2022-10-26T00:01:50;101430.37;;;10.42;nan
14343;BME280;7255;53.596;9.960;2022-10-26T00:04:16;101438.69;;;10.40;nan
14343;BME280;7255;53.596;9.960;2022-10-26T00:06:42;101434.13;;;10.34;nan
14343;BME280;7255;53.596;9.960;2022-10-26T00:09:09;101430.00;;;10.32;nan
14343;BME280;7255;53.596;9.960;2022-10-26T00:11:36;101433.25;;;10.27;nan
14343;BME280;7255;53.596;9.960;2022-10-26T00:14:02;101429.53;;;10.21;nan
14343;BME280;7255;53.596;9.960;2022-10-26T00:16:29;101428.72;;;10.21;nan
14343;BME280;7255;53.596;9.960;2022-10-26T00:18:55;101441.91;;;10.16;nan
14343;BME280;7255;53.596;9.960;2022-10-26T00:21:21;101440.28;;;10.15;nan
14343;BME280;7255;53.596;9.960;2022-10-26T00:23:48;101432.00;;;10.10;nan
14343;BME280;7255;53.596;9.960;2022-10-26T00:26:14;101436.94;;;10.06;nan
14343;BME280;7255;53.596;9.960;2022-10-26T00:28:42;101433.66;;;10.04;nan
14343;BME280;7255;53.596;9.960;2022-10-26T00:31:12;101427.00;;;10.00;nan
14343;BME280;7255;53.596;9.960;2022-10-26T00:33:39;101430.31;;;9.95;nan
14343;BME280;7255;53.596;9.960;2022-10-26T00:36:06;101423.28;;;9.94;nan
14343;BME280;7255;53.596;9.960;2022-10-26T00:38:33;101431.97;;;9.90;nan
14343;BME280;7255;53.596;9.960;2022-10-26T00:40:59;101432.78;;;9.90;nan
14343;BME280;7255;53.596;9.960;2022-10-26T00:43:34;101421.62;;;9.87;nan
14343;BME280;7255;53.596;9.960;2022-10-26T00:46:05;101424.50;;;9.85;nan
14343;BME280;7255;53.596;9.960;2022-10-26T00:48:34;101436.09;;;9.86;nan
14343;BME280;7255;53.596;9.960;2022-10-26T00:51:06;101438.97;;;9.84;nan
14343;BME280;7255;53.596;9.960;2022-10-26T00:53:34;101430.69;;;9.79;nan
14343;BME280;7255;53.596;9.960;2022-10-26T00:56:01;101429.44;;;9.75;nan
14343;BME280;7255;53.596;9.960;2022-10-26T00:58:28;101425.72;;;9.76;nan
14343;BME280;7255;53.596;9.960;2022-10-26T01:00:54;101426.16;;;9.73;nan
14343;BME280;7255;53.596;9.960;2022-10-26T01:03:22;101430.22;;;9.69;nan
14343;BME280;7255;53.596;9.960;2022-10-26T01:05:49;101421.16;;;9.70;nan
14343;BME280;7255;53.596;9.960;2022-10-26T01:08:18;101432.28;;;9.67;nan
14343;BME280;7255;53.596;9.960;2022-10-26T01:10:45;101424.44;;;9.58;nan
14343;BME280;7255;53.596;9.960;2022-10-26T01:13:12;101416.97;;;9.54;nan
14343;BME280;7255;53.596;9.960;2022-10-26T01:15:47;101423.59;;;9.51;nan
14343;BME280;7255;53.596;9.960;2022-10-26T01:18:25;101423.16;;;9.48;nan
14343;BME280;7255;53.596;9.960;2022-10-26T01:21:05;101421.91;;;9.43;nan
14343;BME280;7255;53.596;9.960;2022-10-26T01:23:44;101416.97;;;9.47;nan
14343;BME280;7255;53.596;9.960;2022-10-26T01:26:35;101423.53;;;9.44;nan
14343;BME280;7255;53.596;9.960;2022-10-26T01:29:18;101417.75;;;9.41;nan
14343;BME280;7255;53.596;9.960;2022-10-26T01:31:55;101418.16;;;9.38;nan
14343;BME280;7255;53.596;9.960;2022-10-26T01:34:27;101418.12;;;9.31;nan
14343;BME280;7255;53.596;9.960;2022-10-26T01:37:01;101414.62;;;9.31;nan
14343;BME280;7255;53.596;9.960;2022-10-26T01:39:37;101413.16;;;9.28;nan
14343;BME280;7255;53.596;9.960;2022-10-26T01:42:07;101410.25;;;9.23;nan
14343;BME280;7255;53.596;9.960;2022-10-26T01:44:38;101423.87;;;9.21;nan
14343;BME280;7255;53.596;9.960;2022-10-26T01:47:10;101413.97;;;9.22;nan
14343;BME280;7255;53.596;9.960;2022-10-26T01:49:41;101399.50;;;9.16;nan
14343;BME280;7255;53.596;9.960;2022-10-26T01:52:09;101413.91;;;9.15;nan
14343;BME280;7255;53.596;9.960;2022-10-26T01:54:36;101410.25;;;9.23;nan
14343;BME280;7255;53.596;9.960;2022-10-26T01:57:04;101406.97;;;9.28;nan
14343;BME280;7255;53.596;9.960;2022-10-26T01:59:48;101410.66;;;9.27;nan
14343;BME280;7255;53.596;9.960;2022-10-26T02:02:50;101408.59;;;9.22;nan
14343;BME280;7255;53.596;9.960;2022-10-26T02:05:29;101420.94;;;9.16;nan
14343;BME280;7255;53.596;9.960;2022-10-26T02:08:09;101415.97;;;9.13;nan
14343;BME280;7255;53.596;9.960;2022-10-26T02:10:45;101413.91;;;9.15;nan
14343;BME280;7255;53.596;9.960;2022-10-26T02:13:16;101418.47;;;9.15;nan
14343;BME280;7255;53.596;9.960;2022-10-26T02:15:48;101416.37;;;9.10;nan
14343;BME280;7255;53.596;9.960;2022-10-26T02:18:26;101414.72;;;9.09;nan
14343;BME280;7255;53.596;9.960;2022-10-26T02:20:58;101408.97;;;9.12;nan
14343;BME280;7255;53.596;9.960;2022-10-26T02:23:27;101412.66;;;9.11;nan
14343;BME280;7255;53.596;9.960;2022-10-26T02:25:57;101414.72;;;9.09;nan
14343;BME280;7255;53.596;9.960;2022-10-26T02:28:28;101401.50;;;9.08;nan
14343;BME280;7255;53.596;9.960;2022-10-26T02:30:57;101405.63;;;9.10;nan
14343;BME280;7255;53.596;9.960;2022-10-26T02:33:30;101408.09;;;9.05;nan
14343;BME280;7255;53.596;9.960;2022-10-26T02:35:59;101409.38;;;9.09;nan
14343;BME280;7255;53.596;9.960;2022-10-26T02:38:28;101404.00;;;9.09;nan
14343;BME280;7255;53.596;9.960;2022-10-26T02:40:55;101408.09;;;9.05;nan
14343;BME280;7255;53.596;9.960;2022-10-26T02:43:23;101406.00;;;9.00;nan
14343;BME280;7255;53.596;9.960;2022-10-26T02:45:55;101402.31;;;9.01;nan
14343;BME280;7255;53.596;9.960;2022-10-26T02:48:23;101398.16;;;8.99;nan
14343;BME280;7255;53.596;9.960;2022-10-26T02:50:58;101403.53;;;8.99;nan
14343;BME280;7255;53.596;9.960;2022-10-26T02:53:29;101397.34;;;8.98;nan
14343;BME280;7255;53.596;9.960;2022-10-26T02:55:59;101394.47;;;9.00;nan
14343;BME280;7255;53.596;9.960;2022-10-26T02:58:31;101391.16;;;8.98;nan
14343;BME280;7255;53.596;9.960;2022-10-26T03:01:00;101396.53;;;8.98;nan
14343;BME280;7255;53.596;9.960;2022-10-26T03:03:26;101395.66;;;8.97;nan
14343;BME280;7255;53.596;9.960;2022-10-26T03:05:54;101388.25;;;8.93;nan
14343;BME280;7255;53.596;9.960;2022-10-26T03:08:20;101398.97;;;8.93;nan
14343;BME280;7255;53.596;9.960;2022-10-26T03:10:46;101396.84;;;8.88;nan
14343;BME280;7255;53.596;9.960;2022-10-26T03:13:13;101399.34;;;8.90;nan
14343;BME280;7255;53.596;9.960;2022-10-26T03:15:39;101390.69;;;8.88;nan
14343;BME280;7255;53.596;9.960;2022-10-26T03:18:06;101397.72;;;8.89;nan
14343;BME280;7255;53.596;9.960;2022-10-26T03:20:32;101402.22;;;8.88;nan
14343;BME280;7255;53.596;9.960;2022-10-26T03:23:00;101392.28;;;8.82;nan
14343;BME280;7255;53.596;9.960;2022-10-26T03:25:26;101391.06;;;8.84;nan
14343;BME280;7255;53.596;9.960;2022-10-26T03:27:57;101392.72;;;8.85;nan
14343;BME280;7255;53.596;9.960;2022-10-26T03:30:23;101393.13;;;8.82;nan
14343;BME280;7255;53.596;9.960;2022-10-26T03:32:49;101382.00;;;8.85;nan
14343;BME280;7255;53.596;9.960;2022-10-26T03:35:16;101386.13;;;8.81;nan
14343;BME280;7255;53.596;9.960;2022-10-26T03:37:42;101389.37;;;8.77;nan
14343;BME280;7255;53.596;9.960;2022-10-26T03:40:10;101381.94;;;8.72;nan
14343;BME280;7255;53.596;9.960;2022-10-26T03:42:37;101375.72;;;8.72;nan
14343;BME280;7255;53.596;9.960;2022-10-26T03:45:05;101373.72;;;8.74;nan
14343;BME280;7255;53.596;9.960;2022-10-26T03:47:31;101386.88;;;8.75;nan
14343;BME280;7255;53.596;9.960;2022-10-26T03:49:59;101385.25;;;8.74;nan
14343;BME280;7255;53.596;9.960;2022-10-26T03:52:25;101393.47;;;8.73;nan
14343;BME280;7255;53.596;9.960;2022-10-26T03:54:52;101393.03;;;8.69;nan
14343;BME280;7255;53.596;9.960;2022-10-26T03:57:19;101390.94;;;8.64;nan
14343;BME280;7255;53.596;9.960;2022-10-26T03:59:45;101385.16;;;8.61;nan
14343;BME280;7255;53.596;9.960;2022-10-26T04:02:12;101385.97;;;8.61;nan
14343;BME280;7255;53.596;9.960;2022-10-26T04:04:39;101375.72;;;8.65;nan
14343;BME280;7255;53.596;9.960;2022-10-26T04:07:05;101381.06;;;8.65;nan
14343;BME280;7255;53.596;9.960;2022-10-26T04:09:32;101392.16;;;8.62;nan
14343;BME280;7255;53.596;9.960;2022-10-26T04:11:58;101395.00;;;8.54;nan
14343;BME280;7255;53.596;9.960;2022-10-26T04:14:25;101387.97;;;8.53;nan
14343;BME280;7255;53.596;9.960;2022-10-26T04:16:52;101383.63;;;8.52;nan
14343;BME280;7255;53.596;9.960;2022-10-26T04:19:18;101389.59;;;8.47;nan
14343;BME280;7255;53.596;9.960;2022-10-26T04:21:44;101389.66;;;8.54;nan
14343;BME280;7255;53.596;9.960;2022-10-26T04:24:11;101383.88;;;8.57;nan
14343;BME280;7255;53.596;9.960;2022-10-26T04:26:37;101378.53;;;8.57;nan
14343;BME280;7255;53.596;9.960;2022-10-26T04:29:03;101378.09;;;8.53;nan
14343;BME280;7255;53.596;9.960;2022-10-26T04:31:32;101381.38;;;8.48;nan
14343;BME280;7255;53.596;9.960;2022-10-26T04:33:58;101381.38;;;8.48;nan
14343;BME280;7255;53.596;9.960;2022-10-26T04:36:24;101376.00;;;8.48;nan
14343;BME280;7255;53.596;9.960;2022-10-26T04:38:51;101371.47;;;8.49;nan
14343;BME280;7255;53.596;9.960;2022-10-26T04:41:17;101377.62;;;8.50;nan
14343;BME280;7255;53.596;9.960;2022-10-26T04:43:43;101371.12;;;8.59;nan
14343;BME280;7255;53.596;9.960;2022-10-26T04:46:09;101375.59;;;8.52;nan
14343;BME280;7255;53.596;9.960;2022-10-26T04:48:39;101378.94;;;8.54;nan
14343;BME280;7255;53.596;9.960;2022-10-26T04:51:05;101370.69;;;8.55;nan
14343;BME280;7255;53.596;9.960;2022-10-26T04:53:32;101369.41;;;8.51;nan
14343;BME280;7255;53.596;9.960;2022-10-26T04:55:59;101377.62;;;8.50;nan
14343;BME280;7255;53.596;9.960;2022-10-26T04:58:26;101364.84;;;8.45;nan
14343;BME280;7255;53.596;9.960;2022-10-26T05:00:53;101366.50;;;8.46;nan
14343;BME280;7255;53.596;9.960;2022-10-26T05:03:19;101365.66;;;8.45;nan
14343;BME280;7255;53.596;9.960;2022-10-26T05:05:47;101363.19;;;8.44;nan
14343;BME280;7255;53.596;9.960;2022-10-26T05:08:14;101374.28;;;8.41;nan
14343;BME280;7255;53.596;9.960;2022-10-26T05:10:41;101372.97;;;8.37;nan
14343;BME280;7255;53.596;9.960;2022-10-26T05:13:08;101380.09;;;8.44;nan
14343;BME280;7255;53.596;9.960;2022-10-26T05:15:34;101373.84;;;8.37;nan
14343;BME280;7255;53.596;9.960;2022-10-26T05:18:02;101383.69;;;8.37;nan
14343;BME280;7255;53.596;9.960;2022-10-26T05:20:31;101381.63;;;8.32;nan
14343;BME280;7255;53.596;9.960;2022-10-26T05:23:00;101370.47;;;8.28;nan
14343;BME280;7255;53.596;9.960;2022-10-26T05:25:28;101374.59;;;8.31;nan
14343;BME280;7255;53.596;9.960;2022-10-26T05:27:56;101371.09;;;8.31;nan
14343;BME280;7255;53.596;9.960;2022-10-26T05:30:23;101365.28;;;8.27;nan
14343;BME280;7255;53.596;9.960;2022-10-26T05:32:52;101360.13;;;8.25;nan
14343;BME280;7255;53.596;9.960;2022-10-26T05:35:18;101352.72;;;8.27;nan
14343;BME280;7255;53.596;9.960;2022-10-26T05:37:45;101357.25;;;8.27;nan
14343;BME280;7255;53.596;9.960;2022-10-26T05:40:12;101350.66;;;8.23;nan
14343;BME280;7255;53.596;9.960;2022-10-26T05:42:39;101357.62;;;8.24;nan
14343;BME280;7255;53.596;9.960;2022-10-26T05:45:06;101356.38;;;8.20;nan
14343;BME280;7255;53.596;9.960;2022-10-26T05:47:36;101365.81;;;8.16;nan
14343;BME280;7255;53.596;9.960;2022-10-26T05:50:03;101368.31;;;8.17;nan
14343;BME280;7255;53.596;9.960;2022-10-26T05:52:30;101362.53;;;8.14;nan
14343;BME280;7255;53.596;9.960;2022-10-26T05:55:03;101376.09;;;8.12;nan
14343;BME280;7255;53.596;9.960;2022-10-26T05:57:31;101369.06;;;8.11;nan
14343;BME280;7255;53.596;9.960;2022-10-26T05:59:58;101376.91;;;8.13;nan
14343;BME280;7255;53.596;9.960;2022-10-26T06:02:31;101374.50;;;8.18;nan
14343;BME280;7255;53.596;9.960;2022-10-26T06:05:02;101368.31;;;8.17;nan
14343;BME280;7255;53.596;9.960;2022-10-26T06:07:30;101378.25;;;8.23;nan
14343;BME280;7255;53.596;9.960;2022-10-26T06:09:57;101379.19;;;8.37;nan
14343;BME280;7255;53.596;9.960;2022-10-26T06:12:24;101385.03;;;8.47;nan
14343;BME280;7255;53.596;9.960;2022-10-26T06:14:53;101385.09;;;8.54;nan
14343;BME280;7255;53.596;9.960;2022-10-26T06:17:41;101389.34;;;8.70;nan
14343;BME280;7255;53.596;9.960;2022-10-26T06:20:22;101397.66;;;8.82;nan
14343;BME280;7255;53.596;9.960;2022-10-26T06:23:02;101403.50;;;8.92;nan
14343;BME280;7255;53.596;9.960;2022-10-26T06:25:39;101395.28;;;9.00;nan
14343;BME280;7255;53.596;9.960;2022-10-26T06:28:21;101402.34;;;9.08;nan
14343;BME280;7255;53.596;9.960;2022-10-26T06:30:52;101399.50;;;9.16;nan
14343;BME280;7255;53.596;9.960;2022-10-26T06:33:19;101402.84;;;9.25;nan
14343;BME280;7255;53.596;9.960;2022-10-26T06:35:51;101404.91;;;9.30;nan
14343;BME280;7255;53.596;9.960;2022-10-26T06:38:22;101406.59;;;9.31;nan
14343;BME280;7255;53.596;9.960;2022-10-26T06:40:51;101410.72;;;9.33;nan
14343;BME280;7255;53.596;9.960;2022-10-26T06:43:23;101405.34;;;9.33;nan
14343;BME280;7255;53.596;9.960;2022-10-26T06:45:55;101402.47;;;9.35;nan
14343;BME280;7255;53.596;9.960;2022-10-26T06:48:33;101400.38;;;9.30;nan
14343;BME280;7255;53.596;9.960;2022-10-26T06:51:04;101404.88;;;9.23;nan
14343;BME280;7255;53.596;9.960;2022-10-26T06:53:35;101412.28;;;9.14;nan
14343;BME280;7255;53.596;9.960;2022-10-26T06:56:03;101415.53;;;9.10;nan
14343;BME280;7255;53.596;9.960;2022-10-26T06:58:32;101407.69;;;9.08;nan
14343;BME280;7255;53.596;9.960;2022-10-26T07:01:02;101418.41;;;9.08;nan
14343;BME280;7255;53.596;9.960;2022-10-26T07:03:28;101417.16;;;9.04;nan
14343;BME280;7255;53.596;9.960;2022-10-26T07:05:54;101425.00;;;9.05;nan
14343;BME280;7255;53.596;9.960;2022-10-26T07:08:22;101416.34;;;9.03;nan
14343;BME280;7255;53.596;9.960;2022-10-26T07:10:48;101422.97;;;9.08;nan
14343;BME280;7255;53.596;9.960;2022-10-26T07:13:14;101418.41;;;9.08;nan
14343;BME280;7255;53.596;9.960;2022-10-26T07:15:41;101428.75;;;9.11;nan
14343;BME280;7255;53.596;9.960;2022-10-26T07:18:08;101433.72;;;9.14;nan
14343;BME280;7255;53.596;9.960;2022-10-26T07:20:36;101432.50;;;9.17;nan
14343;BME280;7255;53.596;9.960;2022-10-26T07:23:03;101428.03;;;9.31;nan
14343;BME280;7255;53.596;9.960;2022-10-26T07:25:32;101434.22;;;9.31;nan
14343;BME280;7255;53.596;9.960;2022-10-26T07:27:59;101426.81;;;9.33;nan
14343;BME280;7255;53.596;9.960;2022-10-26T07:30:26;101427.66;;;9.40;nan
14343;BME280;7255;53.596;9.960;2022-10-26T07:32:57;101438.44;;;9.47;nan
14343;BME280;7255;53.596;9.960;2022-10-26T07:35:25;101434.75;;;9.55;nan
14343;BME280;7255;53.596;9.960;2022-10-26T07:37:55;101435.16;;;9.58;nan
14343;BME280;7255;53.596;9.960;2022-10-26T07:40:21;101435.22;;;9.72;nan
14343;BME280;7255;53.596;9.960;2022-10-26T07:42:48;101440.56;;;9.72;nan
14343;BME280;7255;53.596;9.960;2022-10-26T07:45:14;101445.12;;;9.78;nan
14343;BME280;7255;53.596;9.960;2022-10-26T07:47:40;101438.97;;;9.84;nan
14343;BME280;7255;53.596;9.960;2022-10-26T07:50:07;101441.44;;;9.86;nan
14343;BME280;7255;53.596;9.960;2022-10-26T07:52:37;101441.06;;;9.95;nan
14343;BME280;7255;53.596;9.960;2022-10-26T07:55:06;101439.41;;;10.01;nan
14343;BME280;7255;53.596;9.960;2022-10-26T07:57:33;101444.81;;;10.08;nan
14343;BME280;7255;53.596;9.960;2022-10-26T08:00:00;101442.75;;;10.10;nan
14343;BME280;7255;53.596;9.960;2022-10-26T08:02:26;101442.72;;;10.16;nan
14343;BME280;7255;53.596;9.960;2022-10-26T08:04:52;101441.50;;;10.26;nan
14343;BME280;7255;53.596;9.960;2022-10-26T08:07:18;101449.41;;;10.34;nan
14343;BME280;7255;53.596;9.960;2022-10-26T08:09:47;101451.47;;;10.38;nan
14343;BME280;7255;53.596;9.960;2022-10-26T08:12:13;101451.06;;;10.48;nan
14343;BME280;7255;53.596;9.960;2022-10-26T08:14:40;101456.03;;;10.51;nan
14343;BME280;7255;53.596;9.960;2022-10-26T08:17:07;101457.28;;;10.55;nan
14343;BME280;7255;53.596;9.960;2022-10-26T08:19:33;101456.03;;;10.65;nan
14343;BME280;7255;53.596;9.960;2022-10-26T08:21:59;101457.69;;;10.72;nan
14343;BME280;7255;53.596;9.960;2022-10-26T08:24:26;101451.91;;;10.75;nan
14343;BME280;7255;53.596;9.960;2022-10-26T08:26:53;101458.50;;;10.79;nan
14343;BME280;7255;53.596;9.960;2022-10-26T08:29:20;101454.78;;;10.87;nan
14343;BME280;7255;53.596;9.960;2022-10-26T08:31:46;101465.09;;;10.97;nan
14343;BME280;7255;53.596;9.960;2022-10-26T08:34:13;101461.38;;;11.05;nan
14343;BME280;7255;53.596;9.960;2022-10-26T08:36:40;101465.50;;;11.07;nan
14343;BME280;7255;53.596;9.960;2022-10-26T08:39:06;101458.84;;;11.16;nan
14343;BME280;7255;53.596;9.960;2022-10-26T08:41:35;101460.06;;;11.21;nan
14343;BME280;7255;53.596;9.960;2022-10-26T08:44:10;101457.56;;;11.32;nan
14343;BME280;7255;53.596;9.960;2022-10-26T08:46:44;101455.09;;;11.31;nan
14343;BME280;7255;53.596;9.960;2022-10-26T08:49:19;101454.25;;;11.37;nan
14343;BME280;7255;53.596;9.960;2022-10-26T08:51:49;101450.06;;;11.48;nan
14343;BME280;7255;53.596;9.960;2022-10-26T08:54:21;101444.66;;;11.54;nan
14343;BME280;7255;53.596;9.960;2022-10-26T08:56:54;101447.09;;;11.63;nan
14343;BME280;7255;53.596;9.960;2022-10-26T08:59:29;101443.72;;;11.74;nan
14343;BME280;7255;53.596;9.960;2022-10-26T09:01:59;101449.91;;;11.81;nan
14343;BME280;7255;53.596;9.960;2022-10-26T09:04:28;101449.06;;;11.87;nan
14343;BME280;7255;53.596;9.960;2022-10-26T09:06:59;101445.75;;;11.92;nan
14343;BME280;7255;53.596;9.960;2022-10-26T09:09:37;101437.03;;;11.97;nan
14343;BME280;7255;53.596;9.960;2022-10-26T09:12:11;101428.25;;;12.08;nan
14343;BME280;7255;53.596;9.960;2022-10-26T09:14:45;101422.22;;;12.12;nan
14343;BME280;7255;53.596;9.960;2022-10-26T09:17:24;101419.87;;;12.16;nan
14343;BME280;7255;53.596;9.960;2022-10-26T09:20:06;101429.00;;;12.22;nan
14343;BME280;7255;53.596;9.960;2022-10-26T09:22:39;101436.78;;;12.30;nan
14343;BME280;7255;53.596;9.960;2022-10-26T09:25:15;101430.50;;;12.36;nan
14343;BME280;7255;53.596;9.960;2022-10-26T09:27:46;101430.09;;;12.39;nan
14343;BME280;7255;53.596;9.960;2022-10-26T09:30:17;101431.75;;;12.40;nan
14343;BME280;7255;53.596;9.960;2022-10-26T09:32:46;101423.41;;;12.42;nan
14343;BME280;7255;53.596;9.960;2022-10-26T09:35:15;101439.56;;;12.48;nan
14343;BME280;7255;53.596;9.960;2022-10-26T09:37:47;101435.75;;;12.56;nan
14343;BME280;7255;53.596;9.960;2022-10-26T09:40:17;101438.62;;;12.61;nan
14343;BME280;7255;53.596;9.960;2022-10-26T09:42:50;101446.44;;;12.69;nan
14343;BME280;7255;53.596;9.960;2022-10-26T09:45:23;101433.56;;;12.71;nan
14343;BME280;7255;53.596;9.960;2022-10-26T09:47:53;101444.22;;;12.85;nan
14343;BME280;7255;53.596;9.960;2022-10-26T09:50:24;101441.69;;;12.90;nan
14343;BME280;7255;53.596;9.960;2022-10-26T09:52:52;101442.44;;;12.97;nan
14343;BME280;7255;53.596;9.960;2022-10-26T09:55:18;101435.69;;;13.06;nan
14343;BME280;7255;53.596;9.960;2022-10-26T09:57:49;101431.06;;;13.14;nan
14343;BME280;7255;53.596;9.960;2022-10-26T10:00:18;101440.03;;;13.26;nan
14343;BME280;7255;53.596;9.960;2022-10-26T10:02:49;101448.69;;;13.35;nan
14343;BME280;7255;53.596;9.960;2022-10-26T10:05:27;101448.19;;;13.44;nan
14343;BME280;7255;53.596;9.960;2022-10-26T10:08:09;101446.81;;;13.54;nan
14343;BME280;7255;53.596;9.960;2022-10-26T10:10:36;101440.78;;;13.70;nan
14343;BME280;7255;53.596;9.960;2022-10-26T10:13:13;101445.28;;;13.76;nan
14343;BME280;7255;53.596;9.960;2022-10-26T10:15:50;101436.84;;;13.84;nan
14343;BME280;7255;53.596;9.960;2022-10-26T10:18:20;101436.09;;;13.96;nan
14343;BME280;7255;53.596;9.960;2022-10-26T10:20:52;101449.47;;;14.02;nan
14343;BME280;7255;53.596;9.960;2022-10-26T10:23:30;101439.41;;;14.10;nan
14343;BME280;7255;53.596;9.960;2022-10-26T10:25:59;101446.81;;;14.14;nan
14343;BME280;7255;53.596;9.960;2022-10-26T10:28:26;101448.00;;;14.30;nan
14343;BME280;7255;53.596;9.960;2022-10-26T10:30:54;101455.34;;;14.41;nan
14343;BME280;7255;53.596;9.960;2022-10-26T10:33:31;101458.62;;;14.55;nan
14343;BME280;7255;53.596;9.960;2022-10-26T10:35:58;101463.63;;;14.58;nan
14343;BME280;7255;53.596;9.960;2022-10-26T10:38:26;101460.19;;;14.63;nan
14343;BME280;7255;53.596;9.960;2022-10-26T10:40:54;101462.22;;;14.68;nan
14343;BME280;7255;53.596;9.960;2022-10-26T10:43:21;101463.16;;;14.85;nan
14343;BME280;7255;53.596;9.960;2022-10-26T10:45:49;101461.03;;;14.87;nan
14343;BME280;7255;53.596;9.960;2022-10-26T10:48:17;101458.44;;;14.92;nan
14343;BME280;7255;53.596;9.960;2022-10-26T10:50:57;101458.69;;;15.02;nan
14343;BME280;7255;53.596;9.960;2022-10-26T10:53:30;101455.16;;;15.14;nan
14343;BME280;7255;53.596;9.960;2022-10-26T10:56:12;101457.50;;;15.22;nan
14343;BME280;7255;53.596;9.960;2022-10-26T10:58:52;101443.47;;;15.37;nan
14343;BME280;7255;53.596;9.960;2022-10-26T11:01:29;101447.44;;;15.46;nan
14343;BME280;7255;53.596;9.960;2022-10-26T11:04:10;101453.66;;;15.47;nan
14343;BME280;7255;53.596;9.960;2022-10-26T11:06:43;101454.22;;;15.61;nan
14343;BME280;7255;53.596;9.960;2022-10-26T11:09:12;101447.84;;;15.67;nan
14343;BME280;7255;53.596;9.960;2022-10-26T11:11:44;101463.81;;;15.80;nan
14343;BME280;7255;53.596;9.960;2022-10-26T11:14:16;101447.78;;;15.90;nan
14343;BME280;7255;53.596;9.960;2022-10-26T11:16:46;101454.22;;;16.01;nan
14343;BME280;7255;53.596;9.960;2022-10-26T11:19:19;101454.88;;;16.08;nan
14343;BME280;7255;53.596;9.960;2022-10-26T11:21:52;101456.69;;;16.20;nan
14343;BME280;7255;53.596;9.960;2022-10-26T11:24:22;101467.72;;;16.30;nan
14343;BME280;7255;53.596;9.960;2022-10-26T11:26:53;101461.81;;;16.33;nan
14343;BME280;7255;53.596;9.960;2022-10-26T11:29:26;101459.66;;;16.35;nan
14343;BME280;7255;53.596;9.960;2022-10-26T11:31:58;101452.59;;;16.51;nan
14343;BME280;7255;53.596;9.960;2022-10-26T11:34:30;101449.97;;;16.56;nan
14343;BME280;7255;53.596;9.960;2022-10-26T11:37:04;101450.28;;;16.43;nan
14343;BME280;7255;53.596;9.960;2022-10-26T11:39:38;101451.28;;;16.53;nan
14343;BME280;7255;53.596;9.960;2022-10-26T11:42:16;101451.78;;;16.67;nan
14343;BME280;7255;53.596;9.960;2022-10-26T11:44:49;101457.78;;;16.69;nan
14343;BME280;7255;53.596;9.960;2022-10-26T11:47:18;101455.59;;;16.83;nan
14343;BME280;7255;53.596;9.960;2022-10-26T11:49:51;101458.34;;;16.71;nan
14343;BME280;7255;53.596;9.960;2022-10-26T11:52:25;101459.53;;;16.92;nan
14343;BME280;7255;53.596;9.960;2022-10-26T11:54:54;101461.09;;;17.10;nan
14343;BME280;7255;53.596;9.960;2022-10-26T11:57:21;101456.19;;;17.07;nan
14343;BME280;7255;53.596;9.960;2022-10-26T11:59:51;101464.72;;;17.16;nan
14343;BME280;7255;53.596;9.960;2022-10-26T12:02:20;101474.22;;;17.36;nan
14343;BME280;7255;53.596;9.960;2022-10-26T12:04:50;101468.28;;;17.39;nan
14343;BME280;7255;53.596;9.960;2022-10-26T12:07:23;101467.16;;;17.35;nan
14343;BME280;7255;53.596;9.960;2022-10-26T12:09:50;101469.78;;;17.29;nan
14343;BME280;7255;53.596;9.960;2022-10-26T12:12:21;101474.06;;;17.25;nan
14343;BME280;7255;53.596;9.960;2022-10-26T12:14:56;101475.62;;;16.99;nan
14343;BME280;7255;53.596;9.960;2022-10-26T12:17:31;101463.78;;;17.05;nan
14343;BME280;7255;53.596;9.960;2022-10-26T12:20:06;101471.09;;;17.27;nan
14343;BME280;7255;53.596;9.960;2022-10-26T12:22:40;101466.75;;;17.48;nan
14343;BME280;7255;53.596;9.960;2022-10-26T12:25:19;101467.41;;;17.55;nan
14343;BME280;7255;53.596;9.960;2022-10-26T12:27:51;101471.31;;;17.64;nan
14343;BME280;7255;53.596;9.960;2022-10-26T12:30:28;101474.47;;;17.56;nan
14343;BME280;7255;53.596;9.960;2022-10-26T12:32:56;101476.84;;;17.75;nan
14343;BME280;7255;53.596;9.960;2022-10-26T12:35:29;101472.69;;;17.89;nan
14343;BME280;7255;53.596;9.960;2022-10-26T12:37:58;101475.84;;;17.81;nan
14343;BME280;7255;53.596;9.960;2022-10-26T12:40:42;101475.97;;;17.91;nan
14343;BME280;7255;53.596;9.960;2022-10-26T12:43:39;101477.09;;;18.22;nan
14343;BME280;7255;53.596;9.960;2022-10-26T12:46:38;101488.06;;;18.33;nan
14343;BME280;7255;53.596;9.960;2022-10-26T12:52:17;101488.59;;;18.62;nan
14343;BME280;7255;53.596;9.960;2022-10-26T12:55:02;101485.41;;;18.75;nan
14343;BME280;7255;53.596;9.960;2022-10-26T12:57:43;101481.75;;;18.87;nan
14343;BME280;7255;53.596;9.960;2022-10-26T13:00:15;101489.91;;;18.87;nan
14343;BME280;7255;53.596;9.960;2022-10-26T13:02:53;101491.06;;;18.96;nan
14343;BME280;7255;53.596;9.960;2022-10-26T13:06:04;101487.25;;;18.97;nan
14343;BME280;7255;53.596;9.960;2022-10-26T13:08:39;101483.44;;;18.98;nan
14343;BME280;7255;53.596;9.960;2022-10-26T13:11:13;101482.59;;;18.97;nan
14343;BME280;7255;53.596;9.960;2022-10-26T13:13:41;101481.19;;;18.90;nan
14343;BME280;7255;53.596;9.960;2022-10-26T13:16:10;101477.44;;;19.01;nan
14343;BME280;7255;53.596;9.960;2022-10-26T13:18:41;101482.38;;;19.04;nan
14343;BME280;7255;53.596;9.960;2022-10-26T13:21:09;101470.84;;;18.87;nan
14343;BME280;7255;53.596;9.960;2022-10-26T13:23:39;101474.94;;;18.89;nan
14343;BME280;7255;53.596;9.960;2022-10-26T13:26:09;101481.28;;;19.00;nan
14343;BME280;7255;53.596;9.960;2022-10-26T13:28:48;101470.38;;;19.00;nan
14343;BME280;7255;53.596;9.960;2022-10-26T13:31:51;101476.34;;;18.97;nan
14343;BME280;7255;53.596;9.960;2022-10-26T13:34:20;101481.34;;;18.73;nan
14343;BME280;7255;53.596;9.960;2022-10-26T13:36:50;101480.63;;;18.55;nan
14343;BME280;7255;53.596;9.960;2022-10-26T13:39:20;101475.59;;;18.69;nan
14343;BME280;7255;53.596;9.960;2022-10-26T13:41:52;101464.09;;;18.62;nan
14343;BME280;7255;53.596;9.960;2022-10-26T13:44:22;101467.22;;;18.76;nan
14343;BME280;7255;53.596;9.960;2022-10-26T13:46:53;101464.78;;;18.79;nan
14343;BME280;7255;53.596;9.960;2022-10-26T13:49:28;101465.59;;;18.80;nan